createdAt,value
2022-08-20T00:02:30.853Z,36.68
2022-08-20T00:05:04.434Z,36.85
2022-08-20T00:07:39.328Z,36.56
2022-08-20T00:10:13.556Z,36.68
2022-08-20T00:12:48.911Z,36.80
2022-08-20T00:15:25.267Z,36.92
2022-08-20T00:17:59.605Z,37.07
2022-08-20T00:20:36.981Z,37.08
2022-08-20T00:23:11.569Z,37.25
2022-08-20T00:25:46.308Z,37.33
2022-08-20T00:28:20.136Z,37.47
2022-08-20T00:30:53.695Z,37.76
2022-08-20T00:33:27.382Z,37.76
2022-08-20T00:36:03.150Z,37.75
2022-08-20T00:38:38.017Z,37.96
2022-08-20T00:41:13.796Z,38.18
2022-08-20T00:43:49.969Z,38.25
2022-08-20T00:46:31.057Z,38.37
2022-08-20T00:51:46.637Z,38.18
2022-08-20T00:54:23.513Z,38.81
2022-08-20T00:57:00.253Z,38.89
2022-08-20T00:59:37.479Z,38.87
2022-08-20T01:02:13.913Z,39.14
2022-08-20T01:04:51.348Z,39.04
2022-08-20T01:07:28.425Z,39.37
2022-08-20T01:10:02.865Z,39.51
2022-08-20T01:12:36.677Z,39.53
2022-08-20T01:15:13.962Z,39.82
2022-08-20T01:17:50.931Z,40.44
2022-08-20T01:20:27.808Z,40.29
2022-08-20T01:23:22.670Z,40.63
2022-08-20T01:26:00.619Z,40.79
2022-08-20T01:28:38.420Z,40.48
2022-08-20T01:31:14.593Z,41.06
2022-08-20T01:33:49.025Z,40.69
2022-08-20T01:36:25.594Z,40.83
2022-08-20T01:38:59.607Z,41.04
2022-08-20T01:41:38.173Z,41.35
2022-08-20T01:44:16.930Z,41.34
2022-08-20T01:46:50.539Z,41.40
2022-08-20T01:49:27.515Z,41.31
2022-08-20T01:52:03.395Z,41.64
2022-08-20T01:54:37.379Z,41.52
2022-08-20T01:59:55.909Z,41.32
2022-08-20T02:02:29.993Z,41.75
2022-08-20T02:05:03.321Z,41.73
2022-08-20T02:07:37.841Z,41.88
2022-08-20T02:10:14.773Z,41.88
2022-08-20T02:12:48.239Z,41.88
2022-08-20T02:15:35.017Z,41.55
2022-08-20T02:17:59.001Z,41.95
2022-08-20T02:20:33.294Z,42.31
2022-08-20T02:23:08.830Z,42.10
2022-08-20T02:25:43.709Z,41.76
2022-08-20T02:28:20.785Z,41.86
2022-08-20T02:30:56.307Z,41.85
2022-08-20T02:33:29.845Z,41.96
2022-08-20T02:36:03.854Z,42.24
2022-08-20T02:38:39.208Z,42.23
2022-08-20T02:41:13.321Z,42.66
2022-08-20T02:43:46.896Z,42.43
2022-08-20T02:46:21.639Z,42.44
2022-08-20T02:48:55.145Z,42.76
2022-08-20T02:51:30.618Z,42.97
2022-08-20T02:54:04.323Z,42.90
2022-08-20T02:56:38.621Z,42.71
2022-08-20T02:59:13.723Z,42.75
2022-08-20T03:02:00.001Z,42.67
2022-08-20T03:04:23.952Z,43.13
2022-08-20T03:06:59.472Z,42.87
2022-08-20T03:09:33.166Z,42.78
2022-08-20T03:12:07.969Z,43.29
2022-08-20T03:14:41.681Z,42.92
2022-08-20T03:17:16.552Z,42.54
2022-08-20T03:19:50.132Z,42.81
2022-08-20T03:22:23.761Z,43.00
2022-08-20T03:24:59.003Z,43.14
2022-08-20T03:27:36.526Z,43.12
2022-08-20T03:30:13.454Z,43.13
2022-08-20T03:32:47.410Z,43.05
2022-08-20T03:35:23.522Z,42.94
2022-08-20T03:37:57.758Z,42.93
2022-08-20T03:40:34.706Z,43.42
2022-08-20T03:43:09.573Z,43.61
2022-08-20T03:45:45.515Z,43.54
2022-08-20T03:48:21.404Z,43.43
2022-08-20T03:50:56.035Z,43.32
2022-08-20T03:53:31.986Z,43.31
2022-08-20T03:56:07.551Z,43.82
2022-08-20T03:58:41.003Z,43.60
2022-08-20T04:01:44.377Z,43.63
2022-08-20T04:03:54.709Z,43.52
2022-08-20T04:06:25.305Z,43.74
2022-08-20T04:09:00.040Z,43.93
2022-08-20T04:11:33.799Z,43.87
2022-08-20T04:14:07.342Z,43.85
2022-08-20T04:16:43.294Z,43.47
2022-08-20T04:19:16.690Z,43.35
2022-08-20T04:21:50.786Z,43.25
2022-08-20T04:24:32.131Z,43.07
2022-08-20T04:26:59.644Z,42.87
2022-08-20T04:29:35.586Z,42.55
2022-08-20T04:32:10.302Z,42.38
2022-08-20T04:34:45.332Z,42.47
2022-08-20T04:37:23.130Z,42.21
2022-08-20T04:40:15.469Z,42.04
2022-08-20T04:42:48.933Z,41.87
2022-08-20T04:45:25.651Z,41.60
2022-08-20T04:48:00.002Z,41.54
2022-08-20T04:50:36.263Z,41.09
2022-08-20T04:53:12.528Z,40.50
2022-08-20T04:55:47.935Z,40.04
2022-08-20T04:58:24.636Z,39.74
2022-08-20T05:01:01.165Z,39.48
2022-08-20T05:03:34.952Z,39.18
2022-08-20T05:06:10.416Z,39.20
2022-08-20T05:08:48.735Z,39.06
2022-08-20T05:11:32.853Z,38.94
2022-08-20T05:14:04.009Z,39.06
2022-08-20T05:16:40.901Z,39.09
2022-08-20T05:19:15.647Z,39.12
2022-08-20T05:21:50.082Z,39.07
2022-08-20T05:24:23.695Z,39.23
2022-08-20T05:26:57.731Z,39.29
2022-08-20T05:29:31.434Z,39.39
2022-08-20T05:32:06.883Z,39.42
2022-08-20T05:34:40.310Z,39.34
2022-08-20T05:37:13.693Z,39.21
2022-08-20T05:39:47.555Z,38.93
2022-08-20T05:42:21.104Z,38.69
2022-08-20T05:44:54.752Z,38.55
2022-08-20T05:47:29.766Z,38.16
2022-08-20T05:52:48.384Z,37.49
2022-08-20T05:55:22.239Z,37.48
2022-08-20T05:57:59.172Z,37.33
2022-08-20T06:00:34.019Z,37.15
2022-08-20T06:03:25.653Z,36.72
2022-08-20T06:05:59.480Z,36.70
2022-08-20T06:08:33.685Z,36.67
2022-08-20T06:11:07.883Z,36.44
2022-08-20T06:13:41.502Z,36.10
2022-08-20T06:16:15.006Z,35.74
2022-08-20T06:18:49.635Z,35.56
2022-08-20T06:21:23.269Z,35.26
2022-08-20T06:23:59.369Z,35.36
2022-08-20T06:26:34.044Z,35.71
2022-08-20T06:29:08.455Z,35.79
2022-08-20T06:31:42.160Z,35.63
2022-08-20T06:34:15.698Z,35.66
2022-08-20T06:36:49.388Z,35.28
2022-08-20T06:39:24.255Z,35.11
2022-08-20T06:41:58.870Z,34.93
2022-08-20T06:44:32.434Z,34.47
2022-08-20T06:47:07.369Z,34.66
2022-08-20T06:49:40.688Z,34.66
2022-08-20T06:52:14.562Z,34.69
2022-08-20T06:54:50.711Z,34.75
2022-08-20T06:57:25.028Z,34.61
2022-08-20T06:59:58.839Z,34.53
2022-08-20T07:02:34.248Z,34.22
2022-08-20T07:05:08.704Z,34.31
2022-08-20T07:07:43.752Z,34.21
2022-08-20T07:10:18.756Z,33.87
2022-08-20T07:12:52.654Z,33.22
2022-08-20T07:15:27.481Z,33.14
2022-08-20T07:18:04.346Z,33.81
2022-08-20T07:20:40.910Z,34.07
2022-08-20T07:23:14.433Z,33.80
2022-08-20T07:25:48.800Z,33.28
2022-08-20T07:28:25.294Z,32.70
2022-08-20T07:31:16.540Z,31.85
2022-08-20T07:33:50.511Z,31.01
2022-08-20T07:36:25.370Z,30.17
2022-08-20T07:38:59.214Z,28.69
2022-08-20T07:41:34.685Z,28.37
2022-08-20T07:44:09.336Z,29.44
2022-08-20T07:46:42.716Z,30.30
2022-08-20T07:49:16.383Z,30.89
2022-08-20T07:51:49.747Z,30.31
2022-08-20T07:54:23.053Z,29.50
2022-08-20T07:56:56.547Z,28.51
2022-08-20T07:59:30.738Z,28.36
2022-08-20T08:02:04.080Z,29.29
2022-08-20T08:04:38.809Z,29.49
2022-08-20T08:07:13.173Z,29.83
2022-08-20T08:09:47.556Z,30.40
2022-08-20T08:12:22.042Z,30.24
2022-08-20T08:14:56.432Z,30.22
2022-08-20T08:17:31.779Z,29.82
2022-08-20T08:20:08.096Z,30.51
2022-08-20T08:22:43.059Z,31.07
2022-08-20T08:25:17.401Z,31.07
2022-08-20T08:27:51.009Z,30.98
2022-08-20T08:30:24.611Z,31.21
2022-08-20T08:33:15.939Z,30.71
2022-08-20T08:35:49.285Z,29.76
2022-08-20T08:38:23.501Z,28.95
2022-08-20T08:40:59.996Z,28.75
2022-08-20T08:43:34.447Z,28.20
2022-08-20T08:46:10.300Z,28.31
2022-08-20T08:48:47.820Z,28.15
2022-08-20T08:51:21.127Z,28.14
2022-08-20T08:54:02.050Z,28.94
2022-08-20T08:56:34.268Z,28.61
2022-08-20T08:59:09.548Z,28.57
2022-08-20T09:01:54.682Z,29.01
2022-08-20T09:04:23.886Z,29.09
2022-08-20T09:06:59.152Z,28.79
2022-08-20T09:09:36.175Z,29.36
2022-08-20T09:12:12.309Z,29.99
2022-08-20T09:14:46.456Z,30.42
2022-08-20T09:17:21.161Z,30.54
2022-08-20T09:19:55.237Z,30.30
2022-08-20T09:22:28.857Z,30.04
2022-08-20T09:25:03.689Z,30.43
2022-08-20T09:27:37.347Z,30.49
2022-08-20T09:30:15.463Z,30.29
2022-08-20T09:32:50.486Z,30.81
2022-08-20T09:35:24.217Z,30.98
2022-08-20T09:37:57.676Z,30.87
2022-08-20T09:40:31.245Z,30.72
2022-08-20T09:43:06.355Z,30.93
2022-08-20T09:45:39.765Z,31.37
2022-08-20T09:48:12.929Z,31.45
2022-08-20T09:50:50.199Z,31.92
2022-08-20T09:53:24.529Z,31.95
2022-08-20T09:55:58.849Z,32.30
2022-08-20T09:58:38.550Z,32.27
2022-08-20T10:01:15.425Z,32.65
2022-08-20T10:03:50.973Z,32.70
2022-08-20T10:06:24.426Z,32.82
2022-08-20T10:08:58.055Z,32.90
2022-08-20T10:11:31.278Z,33.31
2022-08-20T10:14:05.881Z,33.43
2022-08-20T10:16:39.873Z,33.59
2022-08-20T10:19:13.054Z,34.19
2022-08-20T10:21:46.576Z,34.80
2022-08-20T10:24:20.378Z,35.18
2022-08-20T10:26:55.795Z,35.56
2022-08-20T10:29:30.473Z,35.58
2022-08-20T10:32:13.662Z,35.49
2022-08-20T10:34:48.399Z,35.85
2022-08-20T10:37:24.480Z,36.07
2022-08-20T10:39:58.848Z,36.20
2022-08-20T10:42:32.437Z,36.27
2022-08-20T10:45:07.206Z,36.23
2022-08-20T10:47:42.040Z,36.33
2022-08-20T10:50:19.249Z,36.54
2022-08-20T10:52:52.498Z,36.79
2022-08-20T10:55:26.233Z,36.87
2022-08-20T10:58:00.284Z,37.32
2022-08-20T11:00:33.675Z,38.14
2022-08-20T11:03:07.271Z,37.98
2022-08-20T11:05:41.095Z,38.15
2022-08-20T11:08:14.480Z,37.89
2022-08-20T11:10:47.841Z,38.27
2022-08-20T11:13:22.120Z,38.40
2022-08-20T11:15:55.464Z,38.62
2022-08-20T11:18:29.290Z,38.75
2022-08-20T11:21:02.731Z,38.37
2022-08-20T11:23:35.998Z,38.39
2022-08-20T11:26:09.738Z,38.42
2022-08-20T11:28:43.403Z,38.61
2022-08-20T11:31:16.720Z,38.72
2022-08-20T11:33:50.059Z,38.65
2022-08-20T11:36:25.512Z,38.50
2022-08-20T11:38:58.755Z,38.61
2022-08-20T11:41:32.189Z,38.41
2022-08-20T11:44:21.043Z,38.25
2022-08-20T11:46:41.655Z,38.01
2022-08-20T11:49:15.227Z,37.84
2022-08-20T11:51:49.709Z,38.02
2022-08-20T11:54:23.483Z,37.85
2022-08-20T11:56:58.073Z,37.43
2022-08-20T11:59:31.881Z,37.49
2022-08-20T12:02:10.247Z,37.32
2022-08-20T12:04:40.599Z,37.31
2022-08-20T12:07:16.004Z,37.27
2022-08-20T12:09:50.799Z,37.25
2022-08-20T12:12:28.796Z,37.01
2022-08-20T12:15:02.672Z,36.89
2022-08-20T12:17:37.014Z,36.62
2022-08-20T12:20:13.632Z,36.53
2022-08-20T12:22:47.440Z,36.28
2022-08-20T12:28:05.351Z,35.53
2022-08-20T12:30:41.805Z,35.35
2022-08-20T12:33:18.184Z,35.50
2022-08-20T12:35:51.822Z,35.39
2022-08-20T12:38:25.037Z,35.66
2022-08-20T12:40:58.669Z,35.19
2022-08-20T12:43:31.943Z,34.98
2022-08-20T12:46:05.544Z,34.70
2022-08-20T12:48:39.315Z,34.77
2022-08-20T12:51:12.489Z,34.49
2022-08-20T12:53:46.022Z,34.06
2022-08-20T12:56:19.709Z,33.74
2022-08-20T12:58:52.861Z,33.47
2022-08-20T13:01:26.244Z,33.12
2022-08-20T13:03:59.693Z,33.17
2022-08-20T13:06:32.914Z,33.21
2022-08-20T13:09:06.736Z,33.15
2022-08-20T13:11:39.976Z,33.07
2022-08-20T13:14:13.387Z,33.25
2022-08-20T13:16:46.887Z,33.15
2022-08-20T13:19:21.942Z,33.01
2022-08-20T13:21:55.689Z,32.98
2022-08-20T13:24:29.188Z,33.07
2022-08-20T13:27:08.957Z,32.76
2022-08-20T13:29:48.418Z,32.70
2022-08-20T13:32:23.559Z,32.63
2022-08-20T13:34:56.881Z,32.74
2022-08-20T13:37:31.669Z,32.67
2022-08-20T13:40:07.439Z,32.27
2022-08-20T13:42:42.100Z,32.32
2022-08-20T13:45:16.062Z,32.47
2022-08-20T13:47:51.130Z,32.42
2022-08-20T13:50:26.384Z,32.27
2022-08-20T13:53:00.378Z,32.11
2022-08-20T13:55:38.616Z,32.12
2022-08-20T13:58:24.202Z,32.34
2022-08-20T14:00:58.320Z,32.43
2022-08-20T14:03:32.701Z,32.59
2022-08-20T14:06:06.757Z,32.48
2022-08-20T14:08:43.054Z,32.40
2022-08-20T14:11:17.339Z,32.40
2022-08-20T14:13:58.581Z,32.36
2022-08-20T14:16:35.776Z,32.21
2022-08-20T14:19:12.933Z,32.43
2022-08-20T14:21:50.739Z,32.35
2022-08-20T14:24:33.193Z,32.18
2022-08-20T14:29:57.890Z,32.74
2022-08-20T14:32:31.844Z,32.67
2022-08-20T14:35:07.676Z,32.71
2022-08-20T14:37:43.129Z,32.92
2022-08-20T14:40:18.737Z,32.86
2022-08-20T14:42:52.864Z,33.03
2022-08-20T14:45:27.603Z,32.83
2022-08-20T14:48:03.263Z,33.06
2022-08-20T14:50:39.295Z,32.93
2022-08-20T14:53:12.741Z,33.07
2022-08-20T14:55:46.097Z,33.12
2022-08-20T14:58:19.693Z,32.71
2022-08-20T15:00:53.133Z,32.87
2022-08-20T15:03:28.616Z,32.81
2022-08-20T15:06:02.053Z,32.70
2022-08-20T15:08:35.646Z,32.73
2022-08-20T15:11:09.696Z,32.82
2022-08-20T15:13:43.000Z,32.73
2022-08-20T15:16:16.447Z,32.72
2022-08-20T15:18:50.124Z,32.65
2022-08-20T15:21:25.519Z,32.58
2022-08-20T15:23:58.814Z,32.49
2022-08-20T15:26:32.313Z,32.42
2022-08-20T15:29:05.923Z,32.53
2022-08-20T15:31:39.510Z,32.55
2022-08-20T15:34:17.924Z,32.43
2022-08-20T15:36:48.094Z,32.32
2022-08-20T15:39:21.627Z,32.45
2022-08-20T15:41:55.146Z,32.40
2022-08-20T15:44:28.590Z,32.38
2022-08-20T15:47:16.121Z,32.17
2022-08-20T15:49:49.008Z,32.08
2022-08-20T15:52:22.497Z,32.57
2022-08-20T15:54:56.297Z,32.18
2022-08-20T15:57:47.680Z,32.22
2022-08-20T16:00:24.483Z,32.15
2022-08-20T16:03:09.917Z,32.17
2022-08-20T16:05:50.320Z,32.15
2022-08-20T16:08:38.125Z,32.11
2022-08-20T16:11:16.334Z,32.04
2022-08-20T16:13:52.771Z,32.10
2022-08-20T16:16:30.514Z,32.18
2022-08-20T16:19:02.636Z,32.14
2022-08-20T16:21:38.995Z,32.63
2022-08-20T16:24:14.066Z,32.18
2022-08-20T16:27:01.435Z,32.39
2022-08-20T16:29:42.376Z,32.35
2022-08-20T16:32:21.355Z,32.63
2022-08-20T16:34:57.821Z,32.69
2022-08-20T16:37:35.084Z,32.84
2022-08-20T16:40:14.707Z,32.99
2022-08-20T16:42:51.615Z,32.94
2022-08-20T16:45:28.273Z,33.07
2022-08-20T16:48:04.761Z,33.14
2022-08-20T16:50:40.734Z,33.23
2022-08-20T16:53:17.103Z,33.16
2022-08-20T16:55:50.605Z,33.31
2022-08-20T16:58:25.910Z,33.36
2022-08-20T17:01:11.729Z,33.41
2022-08-20T17:03:52.648Z,33.43
2022-08-20T17:06:31.485Z,33.58
2022-08-20T17:09:10.334Z,33.61
2022-08-20T17:11:43.614Z,33.72
2022-08-20T17:14:19.329Z,33.75
2022-08-20T17:16:55.151Z,33.79
2022-08-20T17:19:31.337Z,33.79
2022-08-20T17:22:14.854Z,33.84
2022-08-20T17:24:49.139Z,33.84
2022-08-20T17:27:39.537Z,33.93
2022-08-20T17:30:21.294Z,34.03
2022-08-20T17:32:59.210Z,34.00
2022-08-20T17:35:36.700Z,34.13
2022-08-20T17:38:11.374Z,34.02
2022-08-20T17:40:47.213Z,34.11
2022-08-20T17:43:29.018Z,34.11
2022-08-20T17:46:06.645Z,34.07
2022-08-20T17:48:44.887Z,33.94
2022-08-20T17:51:20.709Z,33.85
2022-08-20T17:53:56.643Z,33.75
2022-08-20T17:56:32.826Z,33.78
2022-08-20T17:59:10.311Z,33.70
2022-08-20T18:01:44.564Z,33.49
2022-08-20T18:04:18.066Z,33.60
2022-08-20T18:06:54.614Z,33.47
2022-08-20T18:09:31.398Z,33.48
2022-08-20T18:12:08.242Z,33.47
2022-08-20T18:14:49.729Z,33.38
2022-08-20T18:17:38.800Z,33.45
2022-08-20T18:20:36.967Z,33.42
2022-08-20T18:23:10.757Z,33.39
2022-08-20T18:25:48.690Z,33.43
2022-08-20T18:28:25.349Z,33.39
2022-08-20T18:31:05.048Z,33.44
2022-08-20T18:33:43.633Z,33.43
2022-08-20T18:39:09.887Z,33.41
2022-08-20T18:41:45.836Z,33.44
2022-08-20T18:44:30.578Z,33.53
2022-08-20T18:47:07.113Z,33.65
2022-08-20T18:49:42.426Z,33.68
2022-08-20T18:56:00.148Z,33.89
2022-08-20T18:58:36.682Z,33.93
2022-08-20T19:04:02.005Z,34.13
2022-08-20T19:06:40.485Z,34.24
2022-08-20T19:09:17.828Z,34.33
2022-08-20T19:12:17.892Z,34.48
2022-08-20T19:15:01.743Z,34.53
2022-08-20T19:17:59.530Z,34.70
2022-08-20T19:20:36.094Z,34.85
2022-08-20T19:23:12.620Z,34.96
2022-08-20T19:25:54.010Z,35.09
2022-08-20T19:28:31.682Z,35.17
2022-08-20T19:31:14.121Z,35.27
2022-08-20T19:33:51.614Z,35.37
2022-08-20T19:36:28.443Z,35.46
2022-08-20T19:39:02.814Z,35.51
2022-08-20T19:41:43.295Z,35.62
2022-08-20T19:44:27.266Z,35.65
2022-08-20T19:47:02.367Z,35.76
2022-08-20T19:49:43.289Z,35.88
2022-08-20T19:52:29.833Z,35.96
2022-08-20T19:55:07.542Z,36.08
2022-08-20T19:57:53.348Z,36.19
2022-08-20T20:00:32.993Z,36.26
2022-08-20T20:03:33.008Z,36.42
2022-08-20T20:06:17.510Z,36.51
2022-08-20T20:08:58.417Z,36.52
2022-08-20T20:11:35.434Z,36.62
2022-08-20T20:14:11.868Z,36.70
2022-08-20T20:16:46.873Z,36.75
2022-08-20T20:19:28.869Z,36.79
2022-08-20T20:22:08.479Z,36.95
2022-08-20T20:24:46.665Z,37.00
2022-08-20T20:27:23.660Z,37.08
2022-08-20T20:30:03.005Z,37.20
2022-08-20T20:32:36.586Z,37.27
2022-08-20T20:35:10.800Z,37.26
2022-08-20T20:37:50.836Z,37.37
2022-08-20T20:40:28.135Z,37.31
2022-08-20T20:43:05.434Z,37.35
2022-08-20T20:45:41.855Z,37.50
2022-08-20T20:48:21.862Z,37.55
2022-08-20T20:50:56.684Z,37.67
2022-08-20T20:53:50.940Z,37.68
2022-08-20T20:56:09.721Z,37.66
2022-08-20T20:58:43.661Z,37.71
2022-08-20T21:01:18.893Z,37.85
2022-08-20T21:03:53.881Z,37.77
2022-08-20T21:06:29.320Z,37.81
2022-08-20T21:09:03.443Z,37.86
2022-08-20T21:11:37.521Z,37.96
2022-08-20T21:14:10.981Z,37.87
2022-08-20T21:16:45.083Z,37.87
2022-08-20T21:19:18.986Z,37.87
2022-08-20T21:21:52.228Z,37.87
2022-08-20T21:24:25.688Z,37.90
2022-08-20T21:27:01.733Z,37.85
2022-08-20T21:29:35.207Z,37.86
2022-08-20T21:32:12.428Z,37.85
2022-08-20T21:34:46.113Z,37.86
2022-08-20T21:37:20.241Z,37.84
2022-08-20T21:39:53.443Z,37.96
2022-08-20T21:42:29.169Z,38.00
2022-08-20T21:45:02.904Z,37.96
2022-08-20T21:47:36.568Z,37.93
2022-08-20T21:50:11.483Z,37.91
2022-08-20T21:52:55.412Z,37.92
2022-08-20T21:55:21.214Z,37.93
2022-08-20T21:57:54.740Z,37.94
2022-08-20T22:00:53.090Z,37.92
2022-08-20T22:03:28.588Z,38.01
2022-08-20T22:06:06.120Z,38.01
2022-08-20T22:08:39.671Z,38.11
2022-08-20T22:11:14.942Z,38.31
2022-08-20T22:13:48.781Z,38.28
2022-08-20T22:16:23.167Z,38.33
2022-08-20T22:18:56.662Z,38.39
2022-08-20T22:21:32.428Z,38.37
2022-08-20T22:24:09.368Z,38.50
2022-08-20T22:26:43.909Z,38.59
2022-08-20T22:29:17.797Z,38.49
2022-08-20T22:31:51.762Z,38.62
2022-08-20T22:34:25.748Z,38.73
2022-08-20T22:37:01.149Z,38.70
2022-08-20T22:39:34.950Z,38.80
2022-08-20T22:42:09.031Z,38.78
2022-08-20T22:44:42.481Z,38.88
2022-08-20T22:47:16.855Z,38.92
2022-08-20T22:49:50.649Z,38.99
2022-08-20T22:52:25.003Z,39.07
2022-08-20T22:54:59.907Z,39.00
2022-08-20T22:57:34.492Z,39.00
2022-08-20T23:00:11.963Z,39.02
2022-08-20T23:02:47.832Z,39.02
2022-08-20T23:05:23.397Z,38.98
2022-08-20T23:07:58.002Z,38.97
2022-08-20T23:10:32.522Z,39.07
2022-08-20T23:13:06.431Z,39.01
2022-08-20T23:15:45.240Z,39.12
2022-08-20T23:18:18.937Z,39.22
2022-08-20T23:20:56.245Z,39.26
2022-08-20T23:23:30.458Z,39.36
2022-08-20T23:26:04.477Z,39.42
2022-08-20T23:28:37.980Z,39.44
2022-08-20T23:31:11.510Z,39.43
2022-08-20T23:33:45.296Z,39.62
2022-08-20T23:36:20.842Z,39.60
2022-08-20T23:38:54.790Z,39.76
2022-08-20T23:41:28.473Z,39.86
2022-08-20T23:44:01.833Z,39.90
2022-08-20T23:46:37.571Z,39.95
2022-08-20T23:49:10.770Z,39.99
2022-08-20T23:51:44.507Z,40.08
2022-08-20T23:54:18.101Z,40.23
2022-08-20T23:56:51.474Z,40.31
2022-08-20T23:59:27.512Z,40.31
